createdAt,value
2022-12-25T00:04:51.704Z,3.60
2022-12-25T00:09:55.915Z,3.85
2022-12-25T00:15:01.542Z,3.90
2022-12-25T00:20:08.222Z,7.57
2022-12-25T00:25:12.339Z,5.97
2022-12-25T00:30:18.342Z,12.32
2022-12-25T00:35:22.243Z,9.60
2022-12-25T00:40:26.393Z,8.60
2022-12-25T00:45:32.409Z,9.27
2022-12-25T00:50:38.855Z,9.45
2022-12-25T00:55:42.882Z,12.00
2022-12-25T01:00:49.618Z,9.23
2022-12-25T01:05:58.964Z,7.22
2022-12-25T01:16:10.842Z,6.60
2022-12-25T01:21:17.411Z,9.00
2022-12-25T01:26:23.270Z,12.05
2022-12-25T01:31:28.920Z,6.30
2022-12-25T01:36:33.628Z,5.05
2022-12-25T01:41:37.587Z,6.85
2022-12-25T01:46:43.627Z,5.82
2022-12-25T01:51:53.411Z,6.28
2022-12-25T01:57:02.532Z,4.28
2022-12-25T02:02:08.145Z,4.00
2022-12-25T02:07:15.489Z,7.07
2022-12-25T02:12:25.493Z,4.30
2022-12-25T02:17:35.891Z,4.07
2022-12-25T02:22:51.873Z,6.53
2022-12-25T02:28:11.305Z,6.60
2022-12-25T02:33:38.257Z,5.25
2022-12-25T02:39:04.612Z,6.15
2022-12-25T02:44:33.997Z,5.53
2022-12-25T02:49:57.859Z,5.10
2022-12-25T02:55:24.851Z,4.30
2022-12-25T03:00:45.994Z,4.65
2022-12-25T03:06:20.109Z,3.72
2022-12-25T03:11:33.657Z,3.92
2022-12-25T03:16:54.150Z,4.65
2022-12-25T03:22:16.833Z,7.47
2022-12-25T03:27:20.879Z,5.05
2022-12-25T03:32:35.175Z,5.05
2022-12-25T03:38:12.055Z,7.03
2022-12-25T03:43:57.805Z,6.07
2022-12-25T03:49:28.720Z,10.45
2022-12-25T03:54:55.848Z,8.68
2022-12-25T04:00:17.388Z,6.93
2022-12-25T04:05:39.971Z,9.80
2022-12-25T04:11:01.050Z,9.43
2022-12-25T04:16:22.761Z,8.35
2022-12-25T04:21:45.478Z,4.97
2022-12-25T04:27:07.161Z,6.25
2022-12-25T04:32:30.105Z,4.97
2022-12-25T04:37:35.428Z,5.68
2022-12-25T04:42:39.445Z,6.68
2022-12-25T04:47:43.440Z,15.60
2022-12-25T04:52:48.900Z,11.35
2022-12-25T04:57:53.261Z,6.10
2022-12-25T05:02:58.982Z,7.32
2022-12-25T05:08:05.938Z,6.15
2022-12-25T05:13:09.963Z,7.13
2022-12-25T05:18:13.914Z,5.57
2022-12-25T05:23:19.597Z,5.32
2022-12-25T05:28:23.570Z,5.53
2022-12-25T05:33:27.609Z,4.32
2022-12-25T05:38:34.122Z,5.93
2022-12-25T05:43:38.083Z,5.85
2022-12-25T05:48:41.997Z,8.90
2022-12-25T05:53:47.384Z,10.38
2022-12-25T05:58:51.416Z,12.93
2022-12-25T06:03:55.776Z,19.67
2022-12-25T06:09:01.137Z,17.05
2022-12-25T06:14:05.160Z,12.93
2022-12-25T06:19:09.516Z,13.52
2022-12-25T06:24:21.246Z,19.58
2022-12-25T06:29:25.848Z,20.42
2022-12-25T06:34:29.832Z,22.17
2022-12-25T06:39:35.305Z,24.80
2022-12-25T06:44:39.681Z,21.38
2022-12-25T06:49:43.688Z,30.92
2022-12-25T06:54:49.297Z,64.75
2022-12-25T06:59:55.284Z,33.45
2022-12-25T07:05:01.296Z,26.50
2022-12-25T07:10:08.050Z,22.05
2022-12-25T07:15:12.328Z,32.35
2022-12-25T07:20:16.332Z,20.88
2022-12-25T07:25:21.975Z,20.02
2022-12-25T07:30:26.195Z,15.55
2022-12-25T07:35:30.190Z,15.48
2022-12-25T07:40:36.531Z,8.63
2022-12-25T07:45:40.621Z,9.13
2022-12-25T07:50:44.623Z,7.22
2022-12-25T07:55:49.958Z,10.48
2022-12-25T08:00:54.020Z,8.02
2022-12-25T08:06:01.293Z,7.07
2022-12-25T08:11:10.705Z,7.60
2022-12-25T08:21:18.425Z,5.40
2022-12-25T08:26:24.962Z,5.15
2022-12-25T08:31:31.234Z,4.15
2022-12-25T08:36:35.385Z,4.55
2022-12-25T08:41:40.836Z,9.70
2022-12-25T08:46:45.022Z,2.47
2022-12-25T08:51:49.489Z,1.98
2022-12-25T08:57:02.105Z,2.08
2022-12-25T09:02:06.943Z,2.53
2022-12-25T09:07:12.378Z,4.88
2022-12-25T09:12:18.135Z,3.33
2022-12-25T09:17:28.309Z,4.68
2022-12-25T09:22:32.627Z,4.20
2022-12-25T09:27:38.065Z,4.25
2022-12-25T09:32:42.984Z,5.05
2022-12-25T09:37:47.165Z,3.85
2022-12-25T09:42:55.178Z,3.28
2022-12-25T09:47:59.184Z,2.25
2022-12-25T09:53:08.794Z,3.22
2022-12-25T09:58:15.146Z,2.75
2022-12-25T10:03:33.161Z,2.72
2022-12-25T10:08:50.955Z,4.78
2022-12-25T10:14:11.725Z,3.80
2022-12-25T10:19:29.865Z,4.15
2022-12-25T10:24:38.067Z,5.90
2022-12-25T10:29:45.593Z,7.40
2022-12-25T10:34:50.380Z,2.70
2022-12-25T10:39:54.947Z,16.58
2022-12-25T10:45:09.189Z,3.53
2022-12-25T10:50:19.687Z,2.22
2022-12-25T10:55:28.799Z,2.97
2022-12-25T11:00:35.079Z,2.00
2022-12-25T11:05:39.199Z,3.42
2022-12-25T11:10:46.526Z,2.60
2022-12-25T11:16:02.597Z,2.50
2022-12-25T11:21:18.600Z,2.38
2022-12-25T11:26:23.355Z,2.00
2022-12-25T11:31:38.949Z,2.65
2022-12-25T11:36:46.521Z,4.05
2022-12-25T11:41:56.248Z,3.75
2022-12-25T11:47:08.680Z,6.40
2022-12-25T11:52:15.423Z,4.65
2022-12-25T11:57:19.719Z,3.00
2022-12-25T12:02:33.877Z,2.83
2022-12-25T12:07:41.176Z,2.65
2022-12-25T12:12:54.460Z,4.68
2022-12-25T12:18:10.518Z,8.27
2022-12-25T12:23:17.765Z,3.90
2022-12-25T12:28:25.552Z,3.10
2022-12-25T12:33:40.168Z,3.30
2022-12-25T12:38:46.169Z,3.97
2022-12-25T12:43:58.290Z,3.97
2022-12-25T12:49:18.950Z,5.32
2022-12-25T12:54:24.870Z,3.30
2022-12-25T12:59:38.257Z,2.10
2022-12-25T13:05:03.839Z,2.05
2022-12-25T13:10:18.840Z,1.40
2022-12-25T13:15:26.152Z,2.05
2022-12-25T13:20:41.328Z,1.67
2022-12-25T13:25:53.887Z,1.73
2022-12-25T13:31:07.848Z,2.13
2022-12-25T13:36:16.027Z,2.75
2022-12-25T13:41:36.279Z,2.58
2022-12-25T13:46:40.379Z,1.70
2022-12-25T13:51:46.696Z,10.30
2022-12-25T13:56:52.898Z,2.47
2022-12-25T14:01:59.993Z,2.67
2022-12-25T14:07:12.248Z,4.78
2022-12-25T14:12:19.396Z,6.20
2022-12-25T14:17:24.345Z,5.65
2022-12-25T14:22:32.232Z,4.22
2022-12-25T14:27:36.236Z,4.53
2022-12-25T14:32:45.301Z,3.90
2022-12-25T14:37:56.816Z,4.40
2022-12-25T14:43:03.093Z,7.38
2022-12-25T14:48:24.418Z,5.97
2022-12-25T14:53:38.711Z,9.60
2022-12-25T14:58:45.111Z,10.95
2022-12-25T15:03:49.995Z,12.68
2022-12-25T15:09:00.430Z,10.73
2022-12-25T15:14:04.497Z,6.32
2022-12-25T15:19:10.538Z,9.70
2022-12-25T15:24:18.493Z,7.22
2022-12-25T15:29:44.704Z,18.13
2022-12-25T15:34:49.956Z,20.98
2022-12-25T15:39:57.392Z,24.77
2022-12-25T15:45:01.880Z,19.90
2022-12-25T15:50:07.407Z,29.45
2022-12-25T15:55:13.576Z,33.13
2022-12-25T16:00:22.657Z,31.35
2022-12-25T16:05:28.102Z,9.88
2022-12-25T16:10:38.620Z,50.53
2022-12-25T16:15:43.134Z,38.20
2022-12-25T16:20:47.568Z,42.17
2022-12-25T16:25:54.000Z,28.85
2022-12-25T16:31:01.124Z,28.40
2022-12-25T16:36:05.419Z,33.42
2022-12-25T16:41:12.532Z,39.90
2022-12-25T16:46:21.990Z,36.97
2022-12-25T16:51:26.128Z,22.35
2022-12-25T16:56:32.761Z,33.45
2022-12-25T17:01:38.238Z,43.30
2022-12-25T17:06:42.415Z,26.85
2022-12-25T17:11:47.839Z,27.70
2022-12-25T17:16:52.574Z,26.83
2022-12-25T17:21:57.565Z,25.75
2022-12-25T17:27:03.126Z,18.90
2022-12-25T17:32:09.573Z,10.52
2022-12-25T17:37:13.791Z,15.88
2022-12-25T17:42:19.149Z,15.63
2022-12-25T17:47:23.120Z,16.90
2022-12-25T17:52:27.431Z,20.75
2022-12-25T17:57:35.353Z,13.82
2022-12-25T18:02:40.178Z,14.77
2022-12-25T18:07:44.373Z,20.20
2022-12-25T18:12:50.183Z,11.98
2022-12-25T18:17:54.348Z,23.98
2022-12-25T18:22:59.861Z,22.75
2022-12-25T18:28:05.773Z,5.60
2022-12-25T18:33:10.255Z,11.50
2022-12-25T18:38:15.895Z,6.53
2022-12-25T18:43:21.655Z,8.52
2022-12-25T18:48:46.123Z,11.95
2022-12-25T18:53:51.673Z,12.43
2022-12-25T18:59:00.731Z,8.65
2022-12-25T19:04:06.306Z,4.22
2022-12-25T19:09:10.941Z,3.58
2022-12-25T19:14:18.630Z,4.50
2022-12-25T19:19:24.349Z,1.90
2022-12-25T19:24:34.494Z,2.60
2022-12-25T19:29:40.147Z,3.92
2022-12-25T19:34:44.150Z,4.00
2022-12-25T19:39:48.546Z,3.60
2022-12-25T19:44:54.031Z,2.10
2022-12-25T19:50:02.609Z,2.30
2022-12-25T20:00:14.840Z,11.82
2022-12-25T20:05:19.021Z,8.32
2022-12-25T20:10:23.223Z,18.65
2022-12-25T20:15:29.106Z,9.48
2022-12-25T20:20:33.491Z,11.50
2022-12-25T20:25:40.815Z,11.45
2022-12-25T20:30:46.561Z,10.10
2022-12-25T20:35:52.201Z,48.00
2022-12-25T20:41:26.408Z,29.55
2022-12-25T20:46:27.147Z,14.15
2022-12-25T20:51:33.098Z,50.60
2022-12-25T20:56:38.109Z,40.53
2022-12-25T21:01:44.137Z,34.10
2022-12-25T21:06:49.247Z,44.30
2022-12-25T21:11:53.788Z,33.13
2022-12-25T21:17:00.889Z,20.67
2022-12-25T21:22:05.319Z,34.83
2022-12-25T21:27:09.963Z,31.60
2022-12-25T21:32:32.254Z,20.55
2022-12-25T21:37:36.407Z,23.38
2022-12-25T21:42:40.492Z,20.08
2022-12-25T21:48:01.635Z,16.40
2022-12-25T21:53:08.527Z,17.25
2022-12-25T21:58:12.728Z,12.02
2022-12-25T22:03:20.755Z,9.57
2022-12-25T22:08:25.048Z,9.63
2022-12-25T22:13:45.976Z,19.02
2022-12-25T22:19:10.373Z,12.07
2022-12-25T22:24:14.862Z,21.77
2022-12-25T22:29:19.027Z,16.40
2022-12-25T22:34:24.566Z,13.40
2022-12-25T22:39:28.969Z,24.35
2022-12-25T22:44:34.365Z,14.80
2022-12-25T22:49:40.074Z,13.32
2022-12-25T22:54:44.867Z,16.15
2022-12-25T22:59:52.017Z,16.98
2022-12-25T23:04:58.272Z,11.07
2022-12-25T23:10:02.694Z,8.63
2022-12-25T23:15:07.907Z,10.55
2022-12-25T23:20:33.894Z,9.85
2022-12-25T23:25:55.618Z,8.25
2022-12-25T23:30:59.850Z,9.88
2022-12-25T23:36:06.669Z,8.25
2022-12-25T23:41:11.301Z,9.30
2022-12-25T23:46:16.355Z,10.80
2022-12-25T23:51:22.107Z,7.82
2022-12-25T23:56:28.736Z,5.30
